Airfield :
LOGIN :

Register | Disclaimer

   EN    FR    IT 

 










Legend :    VFR   Marginal VFR   IFR   Intensive IFR   Very Intensive IFR
Visi :
Ceiling :
>= 8 km
>= 3000ft
5 to 8 km
1000 to 3000 ft
1500m to 5 km
500 to 1000 ft
800 to 1500m
200 to 500 ft
< 800m
< 200 ft
Symbols :   Thunderstorms  Fog  Heavy snow  Heavy precipitations  Wind > 20 kt
SIGMETs :     Misc.  Thunderstorms  Icing  Turbulence  Mountain Waves  Volcanic Ashes






- Airport Elevation : 401 ft
- IATA code : LEQ


EGHC - Land's End

CURRENT METAR :
  • 281520Z 29025KT 9999 VCSH FEW006 FEW017CB 06/03 Q1003

EXPIRED METARs :
  • 281450Z 29025KT 9999 FEW006 FEW015CB 06/04 Q1002
  • 281420Z 28027KT 9999 FEW008 FEW016CB 07/04 Q1002
  • 281350Z 28020KT 9999 FEW008 FEW016CB 06/04 Q1002
  • 281320Z 30027G38KT 9999 VCSH FEW005 FEW015CB 04/02 Q1002
  • 281250Z 29021T 9999 VCSH FEW010 SCT025 06/03 Q1001

TAF TAF EGHC
Valid from the 28 at 15:00 until the 28 at 18:00 UTC


281400Z 2815/2818 27018G28KT 9999 SCT025
TEMPO 2815/2818 29030G42KT 7000 SHRA
PROB30
TEMPO 2815/2816 3000 +TSGS BKN014



MET'MAP, your aeronautical weather chart ! - Copyright ORBIFLY December 2007 - Disclaimer

ORBIFLY MET'MAP TEAM :

Programming & Development : Alexandra Zaïnal
Concept & original design : Baudouin d'Aumeries
Assistance for programming : Marc-Olivier Méhu
Technical & hardware support : Manuel Goepfert

Contact : metmap@orbifly.com




SOURCES & CREDITS :

   NOAA